Time;durP1;ratioP1;P1;durP2;ratioP2;P2;SDS_P1;SDS_P2;PMS_P1;PMS_P2;Temp;Humidity;BMP_temperature;BMP_pressure;BME280_temperature;BME280_humidity;BME280_pressure;Samples;Min_cycle;Max_cycle;Signal;HPM_P1;HPM_P2
2023/03/11 06:53:29;;;;;;;1.48;0.50;;;;;;;;;;10511399;28;20462;-80
2023/03/11 06:58:30;;;;;;;5.22;0.80;;;;;;;;;;10511952;28;20048;-81
2023/03/11 07:03:31;;;;;;;2.63;0.80;;;;;;;;;;10505262;28;20029;-83
2023/03/11 07:08:32;;;;;;;;;;;;;;;;;;10501602;28;20040;-81
2023/03/11 07:13:34;;;;;;;5.90;1.10;;;;;;;;;;10510845;28;19913;-81
2023/03/11 07:18:35;;;;;;;5.28;1.40;;;;;;;;;;10505758;28;20073;-81
2023/03/11 07:23:36;;;;;;;6.65;1.80;;;;;;;;;;10507168;28;20036;-81
2023/03/11 07:28:38;;;;;;;6.45;2.17;;;;;;;;;;10502770;28;20124;-81
2023/03/11 07:33:40;;;;;;;4.55;1.70;;;;;;;;;;10504044;28;20028;-83
2023/03/11 07:38:41;;;;;;;5.32;1.30;;;;;;;;;;10501875;28;20114;-80
2023/03/11 07:43:43;;;;;;;4.60;1.30;;;;;;;;;;10502147;28;20032;-81
2023/03/11 07:48:44;;;;;;;4.05;1.80;;;;;;;;;;10501892;28;20462;-82
2023/03/11 07:53:46;;;;;;;2.63;1.30;;;;;;;;;;10499617;28;20481;-81
2023/03/11 07:58:47;;;;;;;3.88;1.00;;;;;;;;;;10503384;28;20115;-82
2023/03/11 08:03:48;;;;;;;4.55;1.20;;;;;;;;;;10478162;28;20107;-81
2023/03/11 08:08:50;;;;;;;4.00;0.98;;;;;;;;;;10477479;28;20178;-82
2023/03/11 08:13:52;;;;;;;4.60;1.10;;;;;;;;;;10479508;28;20499;-79
2023/03/11 08:18:54;;;;;;;2.30;0.90;;;;;;;;;;10482746;28;20088;-79
2023/03/11 08:23:59;;;;;;;4.00;1.10;;;;;;;;;;10484252;28;20025;-78
2023/03/11 08:29:00;;;;;;;3.45;1.30;;;;;;;;;;10480153;28;20036;-78
2023/03/11 08:34:01;;;;;;;;;;;;;;;;;;10479071;28;20040;-78
2023/03/11 08:39:02;;;;;;;5.07;2.60;;;;;;;;;;10480268;28;19909;-78
2023/03/11 08:44:04;;;;;;;6.05;3.65;;;;;;;;;;10476004;28;20025;-78
2023/03/11 08:49:05;;;;;;;5.10;3.28;;;;;;;;;;10479179;28;20037;-79
2023/03/11 08:54:06;;;;;;;6.03;4.15;;;;;;;;;;10484642;28;20029;-78
2023/03/11 08:59:07;;;;;;;;;;;;;;;;;;10485549;28;20071;-78
2023/03/11 09:04:09;;;;;;;9.43;5.38;;;;;;;;;;10475735;28;19911;-78
2023/03/11 09:09:09;;;;;;;;;;;;;;;;;;10474659;28;20035;-78
2023/03/11 09:14:10;;;;;;;11.45;4.95;;;;;;;;;;10473635;28;19911;-79
2023/03/11 09:19:11;;;;;;;;;;;;;;;;;;10476660;28;20033;-79
2023/03/11 09:24:12;;;;;;;10.88;4.40;;;;;;;;;;10473307;28;19904;-79
2023/03/11 09:29:13;;;;;;;;;;;;;;;;;;10469824;28;20416;-78
2023/03/11 09:34:14;;;;;;;5.10;2.72;;;;;;;;;;10467677;28;19911;-78
2023/03/11 09:39:15;;;;;;;4.45;2.40;;;;;;;;;;10477687;28;20101;-79
2023/03/11 09:44:16;;;;;;;;;;;;;;;;;;10488627;28;20068;-78
2023/03/11 09:49:27;;;;;;;4.82;2.38;;;;;;;;;;10486661;28;19948;-80
2023/03/11 09:54:29;;;;;;;5.32;2.88;;;;;;;;;;10483339;28;20098;-79
2023/03/11 09:59:32;;;;;;;4.18;1.67;;;;;;;;;;10482592;28;20463;-80
2023/03/11 10:04:36;;;;;;;3.45;1.33;;;;;;;;;;10480543;28;20021;-79
2023/03/11 10:09:43;;;;;;;9.68;7.40;;;;;;;;;;10479887;28;20096;-79
2023/03/11 10:14:50;;;;;;;4.53;1.85;;;;;;;;;;10481292;28;20025;-81
2023/03/11 10:19:54;;;;;;;3.10;1.55;;;;;;;;;;10483704;28;20035;-81
2023/03/11 10:24:56;;;;;;;1.98;1.10;;;;;;;;;;10484138;28;20021;-80
2023/03/11 10:30:03;;;;;;;3.63;1.80;;;;;;;;;;10484095;28;20025;-79
2023/03/11 10:35:11;;;;;;;4.13;1.38;;;;;;;;;;10484165;28;20121;-79
2023/03/11 10:40:23;;;;;;;2.30;1.35;;;;;;;;;;10486916;28;20387;-80
2023/03/11 10:45:25;;;;;;;2.60;1.60;;;;;;;;;;10484635;28;20025;-79
2023/03/11 10:50:26;;;;;;;2.38;1.20;;;;;;;;;;10482370;28;20414;-80
2023/03/11 10:55:27;;;;;;;;;;;;;;;;;;10484044;28;20032;-80
2023/03/11 11:00:29;;;;;;;2.88;1.25;;;;;;;;;;10485075;28;19909;-80
2023/03/11 11:05:32;;;;;;;3.97;2.50;;;;;;;;;;10477477;28;20017;-79
2023/03/11 11:10:35;;;;;;;2.42;1.20;;;;;;;;;;10481637;28;20075;-81
2023/03/11 11:15:39;;;;;;;3.15;1.30;;;;;;;;;;10478840;28;20025;-80
2023/03/11 11:20:53;;;;;;;2.50;0.98;;;;;;;;;;10475833;28;20055;-80
2023/03/11 11:25:57;;;;;;;3.45;1.42;;;;;;;;;;10479789;28;20109;-80
2023/03/11 11:30:59;;;;;;;2.60;1.10;;;;;;;;;;10476526;28;20117;-80
2023/03/11 11:36:12;;;;;;;3.53;1.30;;;;;;;;;;10476046;28;20036;-79
2023/03/11 11:41:16;;;;;;;4.63;0.98;;;;;;;;;;10486750;28;20482;-81
2023/03/11 11:46:26;;;;;;;1.48;0.88;;;;;;;;;;10483257;28;20068;-80
2023/03/11 11:51:30;;;;;;;2.97;1.30;;;;;;;;;;10483467;28;20434;-81
2023/03/11 11:56:31;;;;;;;2.67;0.90;;;;;;;;;;10488715;28;20103;-80
2023/03/11 12:01:40;;;;;;;2.47;1.02;;;;;;;;;;10490866;28;20033;-80
2023/03/11 12:06:41;;;;;;;2.85;1.10;;;;;;;;;;10492463;28;20029;-79
2023/03/11 12:12:09;;;;;;;2.10;1.00;;;;;;;;;;10489208;28;20059;-79
2023/03/11 12:17:12;;;;;;;1.83;0.93;;;;;;;;;;10473936;28;20037;-79
2023/03/11 12:22:19;;;;;;;1.73;0.90;;;;;;;;;;10483034;28;20033;-79
2023/03/11 12:27:23;;;;;;;2.05;1.00;;;;;;;;;;10486481;28;20021;-80
2023/03/11 12:32:36;;;;;;;2.35;0.90;;;;;;;;;;10484236;28;20032;-80
2023/03/11 12:37:37;;;;;;;2.38;0.90;;;;;;;;;;10384700;22;20069;-82
2023/03/11 12:42:39;;;;;;;1.73;0.98;;;;;;;;;;10348922;28;20026;-79
2023/03/11 12:47:40;;;;;;;2.58;0.98;;;;;;;;;;10349607;28;20026;-80
2023/03/11 12:52:41;;;;;;;;;;;;;;;;;;10354597;28;20133;-84
2023/03/11 12:57:45;;;;;;;3.10;1.30;;;;;;;;;;10357147;28;19977;-84
2023/03/11 13:03:05;;;;;;;2.35;1.20;;;;;;;;;;10358336;28;20031;-84
2023/03/11 13:08:10;;;;;;;2.85;1.30;;;;;;;;;;10359599;28;20053;-84
2023/03/11 13:13:37;;;;;;;1.35;0.90;;;;;;;;;;10378977;28;20033;-83
2023/03/11 13:18:39;;;;;;;3.13;1.20;;;;;;;;;;10376682;28;20205;-84
2023/03/11 13:23:40;;;;;;;2.35;0.93;;;;;;;;;;10355506;28;20022;-84
2023/03/11 13:28:56;;;;;;;6.60;4.40;;;;;;;;;;10348914;28;20129;-84
2023/03/11 13:34:01;;;;;;;1.67;0.93;;;;;;;;;;10349053;28;20023;-83
2023/03/11 13:39:21;;;;;;;2.88;1.23;;;;;;;;;;10349438;28;20030;-84
2023/03/11 13:44:29;;;;;;;1.90;1.00;;;;;;;;;;10352811;28;20318;-84
2023/03/11 13:49:33;;;;;;;2.20;0.90;;;;;;;;;;10351219;28;20030;-84
2023/03/11 13:54:43;;;;;;;3.40;0.70;;;;;;;;;;10348881;28;20113;-84
2023/03/11 13:59:44;;;;;;;2.72;1.20;;;;;;;;;;10348610;28;20030;-84
2023/03/11 14:04:45;;;;;;;;;;;;;;;;;;10346769;28;20034;-84
2023/03/11 14:09:46;;;;;;;2.42;1.10;;;;;;;;;;10346267;28;19928;-84
2023/03/11 14:14:48;;;;;;;;;;;;;;;;;;10348396;28;20050;-84
2023/03/11 14:20:09;;;;;;;2.15;1.00;;;;;;;;;;10347389;28;19910;-84
2023/03/11 14:25:10;;;;;;;;;;;;;;;;;;10346024;28;20076;-84
2023/03/11 14:30:17;;;;;;;1.58;0.85;;;;;;;;;;10346599;28;19909;-85
2023/03/11 14:35:19;;;;;;;1.27;0.60;;;;;;;;;;10368980;28;20023;-82
2023/03/11 14:40:29;;;;;;;2.33;1.00;;;;;;;;;;10383248;28;20022;-84
2023/03/11 14:45:32;;;;;;;1.98;0.90;;;;;;;;;;10369080;28;20027;-85
2023/03/11 14:50:34;;;;;;;3.35;0.93;;;;;;;;;;10346967;28;20027;-85
2023/03/11 14:55:42;;;;;;;3.03;0.80;;;;;;;;;;10344184;28;20040;-85
2023/03/11 15:00:46;;;;;;;1.73;0.95;;;;;;;;;;10348633;28;20034;-85
2023/03/11 15:05:50;;;;;;;2.00;0.80;;;;;;;;;;10347951;28;20019;-85
2023/03/11 15:11:20;;;;;;;2.60;1.17;;;;;;;;;;10351866;28;20033;-84
2023/03/11 15:16:24;;;;;;;3.33;1.23;;;;;;;;;;10354278;28;20049;-84
2023/03/11 15:21:26;;;;;;;1.83;0.85;;;;;;;;;;10352273;28;20511;-84
2023/03/11 15:26:31;;;;;;;3.65;1.02;;;;;;;;;;10348257;28;20456;-85
2023/03/11 15:31:34;;;;;;;2.03;0.60;;;;;;;;;;10351897;28;20057;-85
2023/03/11 15:36:41;;;;;;;4.25;0.80;;;;;;;;;;10353011;28;20050;-84
2023/03/11 15:41:42;;;;;;;1.35;0.70;;;;;;;;;;10349973;28;20027;-84
2023/03/11 15:46:43;;;;;;;1.48;0.82;;;;;;;;;;10346061;28;20026;-84
2023/03/11 15:51:44;;;;;;;;;;;;;;;;;;10345979;28;20530;-85
2023/03/11 15:56:45;;;;;;;2.05;1.10;;;;;;;;;;10350958;28;19932;-84
2023/03/11 16:01:46;;;;;;;;;;;;;;;;;;10352436;28;20035;-84
2023/03/11 16:06:48;;;;;;;5.60;1.80;;;;;;;;;;10346720;28;19905;-84
2023/03/11 16:11:49;;;;;;;2.20;1.20;;;;;;;;;;10346567;28;20030;-84
2023/03/11 16:16:50;;;;;;;;;;;;;;;;;;10345939;28;20034;-84
2023/03/11 16:21:51;;;;;;;3.63;1.17;;;;;;;;;;10344012;28;19913;-84
2023/03/11 16:26:52;;;;;;;;;;;;;;;;;;10350065;28;20030;-84
2023/03/11 16:31:54;;;;;;;0.95;0.70;;;;;;;;;;10347180;28;19906;-84
2023/03/11 16:36:55;;;;;;;1.40;0.73;;;;;;;;;;10341669;28;20093;-84
2023/03/11 16:41:56;;;;;;;;;;;;;;;;;;10343793;28;20094;-84
2023/03/11 16:46:57;;;;;;;1.05;0.77;;;;;;;;;;10343188;28;19894;-84
2023/03/11 16:51:58;;;;;;;1.67;0.88;;;;;;;;;;10344949;28;20382;-84
2023/03/11 16:56:59;;;;;;;;;;;;;;;;;;10356016;28;20110;-85
2023/03/11 17:02:01;;;;;;;1.90;1.05;;;;;;;;;;10354463;28;19910;-85
2023/03/11 17:07:02;;;;;;;2.38;1.00;;;;;;;;;;10356983;28;20033;-85
2023/03/11 17:12:04;;;;;;;1.40;0.75;;;;;;;;;;10354647;28;20026;-85
2023/03/11 17:17:06;;;;;;;1.98;0.82;;;;;;;;;;10355801;28;20086;-85
2023/03/11 17:22:07;;;;;;;1.45;1.02;;;;;;;;;;10357722;28;20038;-85
2023/03/11 17:27:08;;;;;;;;;;;;;;;;;;10357955;28;20022;-84
2023/03/11 17:32:12;;;;;;;1.50;0.75;;;;;;;;;;10363232;28;19894;-84
2023/03/11 17:37:13;;;;;;;2.40;1.00;;;;;;;;;;10383435;28;20022;-84
2023/03/11 17:42:14;;;;;;;1.00;0.60;;;;;;;;;;10366467;28;20052;-84
2023/03/11 17:47:16;;;;;;;;;;;;;;;;;;10351424;28;20080;-84
2023/03/11 17:52:17;;;;;;;1.27;0.75;;;;;;;;;;10351824;28;19905;-85
2023/03/11 17:57:18;;;;;;;1.70;1.08;;;;;;;;;;10351439;28;20168;-85
2023/03/11 18:02:20;;;;;;;1.58;0.77;;;;;;;;;;10352549;28;20034;-85
2023/03/11 18:07:22;;;;;;;1.55;0.82;;;;;;;;;;10352688;28;20026;-85
2023/03/11 18:12:23;;;;;;;1.30;0.90;;;;;;;;;;10350859;28;20042;-84
2023/03/11 18:17:24;;;;;;;1.98;1.15;;;;;;;;;;10349050;28;20025;-84
2023/03/11 18:22:25;;;;;;;;;;;;;;;;;;10352332;28;20567;-84
2023/03/11 18:27:26;;;;;;;1.95;1.02;;;;;;;;;;10351857;28;19906;-85
2023/03/11 18:32:27;;;;;;;3.33;1.50;;;;;;;;;;10354098;28;20082;-85
2023/03/11 18:37:33;;;;;;;;;;;;;;;;;;10377997;22;20046;-83
2023/03/11 18:42:41;;;;;;;3.22;1.50;;;;;;;;;;10371593;28;19977;-85
